CheckWX is a tool to help pilots better visualize weather data.  It is not intended as a substitute for an official pre-flight weather briefing.

13:00:45 UTC

KNEW TAF
Lakefront Airport
New Orleans, Louisiana, USA
KNEW 131154Z 1312/1412 02015KT P6SM SKC FM132300 06005KT P6SM SCT150 OVC200

Nov-13@
12:00 UTC

Nov-13 @ 12:00 UTC

Nov-13@
23:00 UTC

Nov-13 @ 23:00 UTC

KNEW 131154Z 1312/1412 02015KT P6SM SKC
Wind
  • 020° at 15 KTS
Cloud Levels
  • Clear skies

Nov-13@
23:00 UTC

Nov-13 @ 23:00 UTC

Nov-14@
12:00 UTC

Nov-14 @ 12:00 UTC

FM132300 06005KT P6SM SCT150 OVC200

From

From Standard forecast or significant change

Wind
  • 060° at 5 KTS
Cloud Levels
  • Scattered at 15,000' AGL
  • Overcast at 20,000' AGL